Time;durP1;ratioP1;P1;durP2;ratioP2;P2;SDS_P1;SDS_P2;PMS_P1;PMS_P2;Temp;Humidity;BMP_temperature;BMP_pressure;BME280_temperature;BME280_humidity;BME280_pressure;Samples;Min_cycle;Max_cycle;Signal;HPM_P1;HPM_P2
2022/06/21 00:02:25;;;;;;;2.83;0.97;;;;;;;;;;4974222;28;20469;-65
2022/06/21 00:04:51;;;;;;;2.20;1.10;;;;;;;;;;4959548;28;20446;-65
2022/06/21 00:07:26;;;;;;;1.03;0.83;;;;;;;;;;4969019;28;20508;-65
2022/06/21 00:09:52;;;;;;;1.03;0.97;;;;;;;;;;4974342;28;20431;-65
2022/06/21 00:12:18;;;;;;;3.43;1.27;;;;;;;;;;4974369;28;20434;-65
2022/06/21 00:14:44;;;;;;;2.10;0.90;;;;;;;;;;4975207;28;20496;-65
2022/06/21 00:17:13;;;;;;;1.10;1.10;;;;;;;;;;4973684;28;20842;-65
2022/06/21 00:19:41;;;;;;;0.77;0.77;;;;;;;;;;4960121;28;20441;-65
2022/06/21 00:22:09;;;;;;;3.90;1.17;;;;;;;;;;4974866;28;20430;-65
2022/06/21 00:24:35;;;;;;;0.70;0.70;;;;;;;;;;4974792;28;20873;-65
2022/06/21 00:27:02;;;;;;;1.10;0.90;;;;;;;;;;4974147;28;20434;-65
2022/06/21 00:29:28;;;;;;;4.00;1.00;;;;;;;;;;4973229;28;20190;-65
2022/06/21 00:31:54;;;;;;;3.50;2.03;;;;;;;;;;4974666;28;20927;-65
2022/06/21 00:34:21;;;;;;;4.00;0.90;;;;;;;;;;4957048;28;20497;-65
2022/06/21 00:36:48;;;;;;;0.70;0.70;;;;;;;;;;4970344;28;20910;-63
2022/06/21 00:39:15;;;;;;;0.93;0.87;;;;;;;;;;4974546;28;20430;-64
2022/06/21 00:41:44;;;;;;;2.97;0.70;;;;;;;;;;4973618;28;20922;-65
2022/06/21 00:44:29;;;;;;;0.70;0.70;;;;;;;;;;4974327;28;20478;-65
2022/06/21 00:47:00;;;;;;;4.23;0.80;;;;;;;;;;4973947;28;20505;-65
2022/06/21 00:49:28;;;;;;;0.63;0.63;;;;;;;;;;4967269;28;20430;-65
2022/06/21 00:51:57;;;;;;;1.30;0.77;;;;;;;;;;4974164;28;20458;-65
2022/06/21 00:54:44;;;;;;;0.77;0.77;;;;;;;;;;4974836;28;20980;-65
2022/06/21 00:57:15;;;;;;;0.90;0.90;;;;;;;;;;4967501;28;20434;-65
2022/06/21 00:59:41;;;;;;;2.43;0.93;;;;;;;;;;4972211;28;20422;-64
2022/06/21 01:02:22;;;;;;;0.70;0.70;;;;;;;;;;4972534;28;20430;-65
2022/06/21 01:04:50;;;;;;;0.90;0.90;;;;;;;;;;4973059;28;20932;-65
2022/06/21 01:07:17;;;;;;;1.07;0.97;;;;;;;;;;4972646;28;20440;-65
2022/06/21 01:10:12;;;;;;;0.80;0.80;;;;;;;;;;4969666;28;20784;-65
2022/06/21 01:12:54;;;;;;;1.00;1.00;;;;;;;;;;4954236;28;20524;-65
2022/06/21 01:15:21;;;;;;;4.50;1.60;;;;;;;;;;4974013;28;20430;-65
2022/06/21 01:17:48;;;;;;;1.63;0.87;;;;;;;;;;4973491;28;20481;-65
2022/06/21 01:20:23;;;;;;;1.40;1.30;;;;;;;;;;4973646;28;20442;-65
2022/06/21 01:22:58;;;;;;;2.50;1.00;;;;;;;;;;4973823;28;20837;-65
2022/06/21 01:25:44;;;;;;;2.43;1.20;;;;;;;;;;4970872;28;20810;-65
2022/06/21 01:28:11;;;;;;;1.00;1.00;;;;;;;;;;4966014;28;20946;-65
2022/06/21 01:30:38;;;;;;;0.90;0.90;;;;;;;;;;4973116;28;20910;-65
2022/06/21 01:33:04;;;;;;;4.23;1.50;;;;;;;;;;4972150;28;20422;-65
2022/06/21 01:35:40;;;;;;;3.90;1.97;;;;;;;;;;4972677;28;20438;-65
2022/06/21 01:38:08;;;;;;;2.43;1.30;;;;;;;;;;4966246;28;20475;-65
2022/06/21 01:40:36;;;;;;;3.50;1.47;;;;;;;;;;4973399;28;20445;-65
2022/06/21 01:43:05;;;;;;;1.20;1.10;;;;;;;;;;4972232;28;20612;-65
2022/06/21 01:45:35;;;;;;;1.20;1.17;;;;;;;;;;4973438;28;20449;-65
2022/06/21 01:48:03;;;;;;;1.37;1.17;;;;;;;;;;4965101;28;20516;-65
2022/06/21 01:50:30;;;;;;;3.50;1.10;;;;;;;;;;4945189;29;20474;-65
2022/06/21 01:52:56;;;;;;;4.63;1.10;;;;;;;;;;4973456;28;20511;-65
2022/06/21 01:55:31;;;;;;;0.97;0.97;;;;;;;;;;4973783;28;20438;-65
2022/06/21 01:57:59;;;;;;;2.50;1.43;;;;;;;;;;4973395;28;20429;-65
2022/06/21 02:00:25;;;;;;;1.00;0.90;;;;;;;;;;4968571;28;20904;-65
2022/06/21 02:02:55;;;;;;;1.13;1.03;;;;;;;;;;4972591;28;21732;-65
2022/06/21 02:05:23;;;;;;;2.20;1.37;;;;;;;;;;4972121;28;20489;-65
2022/06/21 02:07:53;;;;;;;1.40;1.27;;;;;;;;;;4972669;28;20930;-65
2022/06/21 02:10:32;;;;;;;1.43;1.33;;;;;;;;;;4972094;28;20433;-65
2022/06/21 02:13:05;;;;;;;1.10;1.10;;;;;;;;;;4973041;28;20438;-65
2022/06/21 02:15:35;;;;;;;1.13;1.03;;;;;;;;;;4971813;28;20469;-65
2022/06/21 02:18:02;;;;;;;1.97;1.20;;;;;;;;;;4973206;28;20444;-64
2022/06/21 02:20:49;;;;;;;2.87;1.60;;;;;;;;;;4971233;28;20481;-65
2022/06/21 02:23:16;;;;;;;4.90;1.17;;;;;;;;;;4948654;28;20841;-66
2022/06/21 02:25:42;;;;;;;1.40;1.30;;;;;;;;;;4972232;28;20438;-65
2022/06/21 02:28:10;;;;;;;1.23;1.13;;;;;;;;;;4955757;28;20434;-66
2022/06/21 02:30:36;;;;;;;1.60;1.00;;;;;;;;;;4972071;28;20934;-66
2022/06/21 02:33:05;;;;;;;1.40;1.30;;;;;;;;;;4973017;28;20430;-65
2022/06/21 02:35:40;;;;;;;3.50;1.60;;;;;;;;;;4965907;28;20911;-65
2022/06/21 02:38:07;;;;;;;5.70;1.73;;;;;;;;;;4972536;28;20855;-66
2022/06/21 02:40:35;;;;;;;1.93;1.50;;;;;;;;;;4971312;28;20470;-66
2022/06/21 02:43:04;;;;;;;3.30;1.17;;;;;;;;;;4966475;28;20472;-65
2022/06/21 02:45:33;;;;;;;2.27;1.10;;;;;;;;;;4955043;28;20442;-65
2022/06/21 02:48:02;;;;;;;1.60;0.87;;;;;;;;;;4973042;28;20430;-65
2022/06/21 02:50:45;;;;;;;4.90;1.63;;;;;;;;;;4966556;28;20488;-65
2022/06/21 02:53:22;;;;;;;1.43;1.43;;;;;;;;;;4973326;28;20492;-65
2022/06/21 02:55:55;;;;;;;1.37;1.27;;;;;;;;;;4977141;28;20442;-65
2022/06/21 02:58:25;;;;;;;0.90;0.90;;;;;;;;;;4973476;28;20426;-66
2022/06/21 03:00:52;;;;;;;1.47;1.07;;;;;;;;;;4974781;28;20449;-65
2022/06/21 03:03:21;;;;;;;1.67;1.47;;;;;;;;;;4976591;28;20577;-66
2022/06/21 03:05:49;;;;;;;2.30;1.70;;;;;;;;;;4974364;28;20436;-65
2022/06/21 03:08:15;;;;;;;1.77;0.90;;;;;;;;;;4975874;28;20441;-66
2022/06/21 03:10:45;;;;;;;2.90;1.20;;;;;;;;;;4975929;28;20480;-65
2022/06/21 03:13:13;;;;;;;1.10;1.00;;;;;;;;;;4976574;28;20434;-65
2022/06/21 03:15:40;;;;;;;2.77;1.40;;;;;;;;;;4975389;28;20425;-66
2022/06/21 03:18:07;;;;;;;1.07;1.07;;;;;;;;;;4976095;28;20430;-65
2022/06/21 03:20:33;;;;;;;1.63;0.97;;;;;;;;;;4958599;28;20433;-66
2022/06/21 03:22:59;;;;;;;8.70;1.63;;;;;;;;;;4964560;28;20993;-65
2022/06/21 03:25:34;;;;;;;2.23;2.13;;;;;;;;;;4973150;28;20431;-65
2022/06/21 03:28:01;;;;;;;1.57;1.23;;;;;;;;;;4975053;28;20441;-66
2022/06/21 03:30:35;;;;;;;1.57;1.47;;;;;;;;;;4975021;28;20430;-65
2022/06/21 03:33:02;;;;;;;5.40;1.80;;;;;;;;;;4958805;28;20437;-65
2022/06/21 03:35:30;;;;;;;3.77;1.57;;;;;;;;;;4975748;28;20441;-65
2022/06/21 03:37:56;;;;;;;1.43;1.33;;;;;;;;;;4974458;28;20500;-65
2022/06/21 03:43:31;;;;;;;2.80;1.33;;;;;;;;;;4975659;28;20559;-66
2022/06/21 03:45:59;;;;;;;4.53;1.47;;;;;;;;;;4965124;28;20865;-65
2022/06/21 03:48:29;;;;;;;3.53;1.53;;;;;;;;;;4975657;28;20434;-66
2022/06/21 03:50:59;;;;;;;2.00;1.50;;;;;;;;;;4974325;28;20485;-65
2022/06/21 03:53:29;;;;;;;4.03;1.73;;;;;;;;;;4974861;28;20895;-65
2022/06/21 03:55:58;;;;;;;3.33;1.20;;;;;;;;;;4968250;28;20807;-65
2022/06/21 03:58:40;;;;;;;1.37;1.27;;;;;;;;;;4966234;28;20528;-66
2022/06/21 04:01:09;;;;;;;1.60;1.50;;;;;;;;;;4973476;28;20455;-65
2022/06/21 04:03:43;;;;;;;1.77;1.63;;;;;;;;;;4975516;28;20492;-65
2022/06/21 04:06:35;;;;;;;2.00;1.33;;;;;;;;;;4974795;28;20497;-65
2022/06/21 04:09:07;;;;;;;1.17;1.03;;;;;;;;;;4971634;28;20457;-65
2022/06/21 04:11:36;;;;;;;1.50;1.40;;;;;;;;;;4974570;28;20429;-65
2022/06/21 04:14:11;;;;;;;1.30;1.20;;;;;;;;;;4963760;28;20663;-65
2022/06/21 04:16:53;;;;;;;3.90;2.00;;;;;;;;;;4974817;28;20457;-65
2022/06/21 04:19:26;;;;;;;1.70;1.60;;;;;;;;;;4975054;28;20430;-65
2022/06/21 04:21:58;;;;;;;1.20;1.20;;;;;;;;;;4974177;28;20426;-65
2022/06/21 04:24:33;;;;;;;2.40;1.30;;;;;;;;;;4955879;28;21024;-66
2022/06/21 04:27:04;;;;;;;5.37;1.57;;;;;;;;;;4960646;28;20425;-67
2022/06/21 04:29:38;;;;;;;1.10;1.10;;;;;;;;;;4975172;28;20804;-65
2022/06/21 04:32:11;;;;;;;1.53;1.50;;;;;;;;;;4974347;28;20885;-66
2022/06/21 04:34:52;;;;;;;4.23;1.20;;;;;;;;;;4975249;28;20449;-65
2022/06/21 04:37:25;;;;;;;18.27;4.53;;;;;;;;;;4973359;28;20437;-66
2022/06/21 04:39:50;;;;;;;1.93;1.70;;;;;;;;;;4973454;28;20921;-65
2022/06/21 04:42:43;;;;;;;1.30;1.20;;;;;;;;;;4974747;28;20522;-65
2022/06/21 04:45:27;;;;;;;3.27;1.77;;;;;;;;;;4955529;28;21086;-66
2022/06/21 04:48:02;;;;;;;2.50;1.40;;;;;;;;;;4974077;28;20485;-65
2022/06/21 04:50:31;;;;;;;3.23;1.37;;;;;;;;;;4969432;28;20485;-65
2022/06/21 04:53:16;;;;;;;3.03;1.53;;;;;;;;;;4974342;28;20446;-66
2022/06/21 04:55:48;;;;;;;1.43;1.33;;;;;;;;;;4963820;28;20466;-66
2022/06/21 04:58:14;;;;;;;1.77;1.30;;;;;;;;;;4973360;28;20473;-66
2022/06/21 05:00:40;;;;;;;2.77;1.57;;;;;;;;;;4973813;28;20434;-65
2022/06/21 05:03:19;;;;;;;1.80;1.50;;;;;;;;;;4974191;28;20827;-66
2022/06/21 05:05:45;;;;;;;5.87;2.00;;;;;;;;;;4973371;28;20437;-66
2022/06/21 05:08:29;;;;;;;2.77;1.97;;;;;;;;;;4973262;28;20433;-65
2022/06/21 05:10:56;;;;;;;1.20;1.10;;;;;;;;;;4963572;28;20485;-65
2022/06/21 05:13:29;;;;;;;4.87;1.83;;;;;;;;;;4969614;28;20644;-66
2022/06/21 05:15:56;;;;;;;1.63;1.53;;;;;;;;;;4972317;28;20433;-66
2022/06/21 05:18:26;;;;;;;1.13;0.90;;;;;;;;;;4972468;28;20512;-65
2022/06/21 05:20:54;;;;;;;1.93;1.30;;;;;;;;;;4973543;28;20430;-66
2022/06/21 05:23:21;;;;;;;2.20;1.17;;;;;;;;;;4965564;28;20629;-66
2022/06/21 05:25:47;;;;;;;2.73;1.50;;;;;;;;;;4967700;28;20489;-65
2022/06/21 05:28:43;;;;;;;1.40;1.30;;;;;;;;;;4972977;28;20448;-65
2022/06/21 05:31:20;;;;;;;1.80;1.57;;;;;;;;;;4956523;28;20434;-70
2022/06/21 05:33:48;;;;;;;6.10;1.20;;;;;;;;;;4968560;28;20461;-67
2022/06/21 05:36:27;;;;;;;1.73;1.60;;;;;;;;;;4968429;28;20441;-67
2022/06/21 05:38:55;;;;;;;2.73;1.50;;;;;;;;;;4972580;28;20445;-69
2022/06/21 05:41:29;;;;;;;1.00;1.00;;;;;;;;;;4973612;28;20430;-67
2022/06/21 05:43:58;;;;;;;3.43;2.00;;;;;;;;;;4971595;28;20481;-64
2022/06/21 05:46:27;;;;;;;2.10;2.00;;;;;;;;;;4963131;28;20430;-64
2022/06/21 05:48:54;;;;;;;1.40;1.27;;;;;;;;;;4969800;28;20445;-64
2022/06/21 05:51:23;;;;;;;1.60;1.50;;;;;;;;;;4967877;28;20497;-68
2022/06/21 05:53:51;;;;;;;3.63;1.47;;;;;;;;;;4970062;28;20450;-63
2022/06/21 05:56:19;;;;;;;3.33;1.70;;;;;;;;;;4968641;28;20934;-64
2022/06/21 05:58:49;;;;;;;5.27;1.73;;;;;;;;;;4968075;28;20442;-62
2022/06/21 06:01:28;;;;;;;1.70;1.63;;;;;;;;;;4967899;28;20911;-62
2022/06/21 06:04:01;;;;;;;2.23;2.00;;;;;;;;;;4968103;28;20485;-63
2022/06/21 06:06:34;;;;;;;5.93;1.77;;;;;;;;;;4969840;28;20434;-66
2022/06/21 06:09:08;;;;;;;2.17;1.60;;;;;;;;;;4966366;28;20437;-63
2022/06/21 06:11:58;;;;;;;1.73;1.63;;;;;;;;;;4968539;28;20521;-68
2022/06/21 06:14:27;;;;;;;3.20;1.93;;;;;;;;;;4968702;28;20437;-63
2022/06/21 06:16:55;;;;;;;1.60;1.60;;;;;;;;;;4968835;28;20437;-63
2022/06/21 06:19:28;;;;;;;2.20;2.10;;;;;;;;;;4970690;28;20482;-63
2022/06/21 06:22:07;;;;;;;1.70;1.60;;;;;;;;;;4969075;28;20488;-71
2022/06/21 06:24:35;;;;;;;1.63;1.63;;;;;;;;;;4968948;28;20496;-69
2022/06/21 06:27:03;;;;;;;2.13;1.93;;;;;;;;;;4967514;28;20437;-66
2022/06/21 06:29:34;;;;;;;1.63;1.50;;;;;;;;;;4972837;28;20437;-68
2022/06/21 06:32:00;;;;;;;6.10;1.10;;;;;;;;;;4973827;28;20852;-66
2022/06/21 06:34:28;;;;;;;1.47;1.37;;;;;;;;;;4972993;28;20441;-70
2022/06/21 06:36:56;;;;;;;2.37;1.67;;;;;;;;;;4954326;28;20186;-66
2022/06/21 06:39:23;;;;;;;1.80;1.70;;;;;;;;;;4972606;28;20446;-67
2022/06/21 06:42:10;;;;;;;1.37;1.37;;;;;;;;;;4972460;28;20442;-67
2022/06/21 06:44:39;;;;;;;1.53;1.43;;;;;;;;;;4972549;28;21120;-67
2022/06/21 06:47:09;;;;;;;2.77;1.53;;;;;;;;;;4972599;28;20434;-66
2022/06/21 06:49:42;;;;;;;2.33;1.37;;;;;;;;;;4973087;28;20430;-65
2022/06/21 07:09:55;;;;;;;1.33;1.33;;;;;;;;;;4933927;29;20567;-65
2022/06/21 07:12:21;;;;;;;1.77;1.33;;;;;;;;;;4933286;29;20474;-65
2022/06/21 07:14:48;;;;;;;2.10;1.30;;;;;;;;;;4934568;29;20475;-65
2022/06/21 07:17:19;;;;;;;2.93;1.67;;;;;;;;;;4934419;29;20435;-65
2022/06/21 07:19:45;;;;;;;1.63;1.60;;;;;;;;;;4934643;29;20639;-65
2022/06/21 07:22:16;;;;;;;3.20;1.80;;;;;;;;;;4934414;29;20795;-65
2022/06/21 07:24:44;;;;;;;12.73;1.87;;;;;;;;;;4934575;29;20475;-65
2022/06/21 07:27:13;;;;;;;1.83;1.70;;;;;;;;;;4933979;29;20511;-65
2022/06/21 07:29:43;;;;;;;1.57;1.57;;;;;;;;;;4933898;29;20420;-65
2022/06/21 07:32:15;;;;;;;1.43;1.43;;;;;;;;;;4935147;29;20420;-65
2022/06/21 07:34:43;;;;;;;4.87;1.90;;;;;;;;;;4933311;29;20444;-66
2022/06/21 07:37:18;;;;;;;1.73;1.63;;;;;;;;;;4933607;29;20436;-66
2022/06/21 07:39:53;;;;;;;4.17;2.33;;;;;;;;;;4932784;29;20427;-66
2022/06/21 07:42:25;;;;;;;2.03;1.93;;;;;;;;;;4934921;29;20431;-66
2022/06/21 07:45:00;;;;;;;2.30;2.10;;;;;;;;;;4934510;29;20931;-66
2022/06/21 07:47:45;;;;;;;2.00;1.90;;;;;;;;;;4934612;29;20551;-66
2022/06/21 07:50:32;;;;;;;5.73;1.50;;;;;;;;;;4934946;29;21071;-66
2022/06/21 07:53:21;;;;;;;2.60;2.50;;;;;;;;;;4933674;29;20432;-67
2022/06/21 07:55:50;;;;;;;1.53;1.40;;;;;;;;;;4926915;29;20440;-66
2022/06/21 07:58:23;;;;;;;2.03;1.93;;;;;;;;;;4934314;29;20499;-66
2022/06/21 08:06:41;;;;;;;1.80;1.80;;;;;;;;;;4934133;29;20470;-66
2022/06/21 08:09:25;;;;;;;7.10;1.87;;;;;;;;;;4933497;29;20479;-66
2022/06/21 08:11:53;;;;;;;7.50;2.03;;;;;;;;;;4934221;29;20412;-66
2022/06/21 08:14:19;;;;;;;5.10;2.27;;;;;;;;;;4934239;29;20463;-66
2022/06/21 08:16:51;;;;;;;1.97;1.87;;;;;;;;;;4933985;29;20506;-66
2022/06/21 08:19:29;;;;;;;9.03;1.87;;;;;;;;;;4934105;29;20431;-66
2022/06/21 08:22:11;;;;;;;2.43;2.27;;;;;;;;;;4932638;29;20439;-66
2022/06/21 08:24:53;;;;;;;4.40;2.30;;;;;;;;;;4934051;29;20486;-66
2022/06/21 08:27:19;;;;;;;3.53;2.30;;;;;;;;;;4933591;29;20491;-66
2022/06/21 08:29:51;;;;;;;5.47;2.30;;;;;;;;;;4933805;29;20531;-67
2022/06/21 08:32:37;;;;;;;5.27;2.20;;;;;;;;;;4933835;29;20434;-68
2022/06/21 08:35:07;;;;;;;3.03;2.47;;;;;;;;;;4933583;29;20939;-66
2022/06/21 08:37:36;;;;;;;3.33;3.03;;;;;;;;;;4931021;29;20478;-66
2022/06/21 08:40:24;;;;;;;14.83;2.90;;;;;;;;;;4932541;29;20479;-66
2022/06/21 08:43:09;;;;;;;4.40;2.57;;;;;;;;;;4932579;29;20594;-66
2022/06/21 08:45:41;;;;;;;3.10;2.90;;;;;;;;;;4933485;29;20560;-67
2022/06/21 08:48:42;;;;;;;2.50;2.47;;;;;;;;;;4933272;29;20420;-66
2022/06/21 08:51:11;;;;;;;18.43;3.60;;;;;;;;;;4874755;29;20529;-66
2022/06/21 08:53:37;;;;;;;3.10;2.80;;;;;;;;;;4917143;29;20837;-66
2022/06/21 08:56:10;;;;;;;6.30;3.93;;;;;;;;;;4933265;29;20427;-66
2022/06/21 08:58:43;;;;;;;7.77;2.47;;;;;;;;;;4931933;29;20194;-67
2022/06/21 09:01:18;;;;;;;2.20;2.10;;;;;;;;;;4933239;29;20448;-66
2022/06/21 09:03:57;;;;;;;7.40;2.63;;;;;;;;;;4933174;29;20487;-71
2022/06/21 09:06:23;;;;;;;7.40;2.73;;;;;;;;;;4932951;29;20447;-66
2022/06/21 09:09:08;;;;;;;2.60;2.50;;;;;;;;;;4932440;29;20818;-66
2022/06/21 09:11:34;;;;;;;5.93;3.43;;;;;;;;;;4933298;29;20768;-66
2022/06/21 09:14:08;;;;;;;3.00;2.73;;;;;;;;;;4933002;29;20448;-66
2022/06/21 09:16:47;;;;;;;3.97;3.20;;;;;;;;;;4932479;29;20202;-66
2022/06/21 09:19:19;;;;;;;2.13;1.80;;;;;;;;;;4933150;29;20443;-66
2022/06/21 09:22:03;;;;;;;3.50;2.40;;;;;;;;;;4933183;29;20416;-66
2022/06/21 09:24:40;;;;;;;2.87;2.53;;;;;;;;;;4932227;29;21083;-67
2022/06/21 09:27:06;;;;;;;10.73;3.17;;;;;;;;;;4932484;29;21001;-67
2022/06/21 09:29:59;;;;;;;2.60;2.40;;;;;;;;;;4933093;29;20427;-66
2022/06/21 09:32:43;;;;;;;2.80;2.60;;;;;;;;;;4932905;29;20424;-67
2022/06/21 09:35:09;;;;;;;7.60;3.30;;;;;;;;;;4932786;29;20530;-66
2022/06/21 09:37:38;;;;;;;2.23;2.23;;;;;;;;;;4931930;29;20863;-67
2022/06/21 09:40:04;;;;;;;2.03;2.03;;;;;;;;;;4932154;29;22046;-66
2022/06/21 09:42:32;;;;;;;2.73;2.53;;;;;;;;;;4932931;29;20511;-66
2022/06/21 09:45:19;;;;;;;3.23;2.40;;;;;;;;;;4932731;29;20439;-66
2022/06/21 09:47:45;;;;;;;2.80;2.60;;;;;;;;;;4932454;29;20459;-66
2022/06/21 09:50:15;;;;;;;5.03;2.90;;;;;;;;;;4932443;29;20471;-66
2022/06/21 09:52:47;;;;;;;2.80;2.60;;;;;;;;;;4931137;29;20431;-66
2022/06/21 09:55:13;;;;;;;4.57;3.43;;;;;;;;;;4932061;29;20431;-65
2022/06/21 09:57:46;;;;;;;2.93;2.73;;;;;;;;;;4930796;29;20499;-66
2022/06/21 10:00:16;;;;;;;2.97;2.87;;;;;;;;;;4932056;29;20460;-66
2022/06/21 10:02:54;;;;;;;10.77;2.70;;;;;;;;;;4932108;29;20419;-65
2022/06/21 10:05:43;;;;;;;2.60;2.50;;;;;;;;;;4931960;29;20439;-66
2022/06/21 10:08:19;;;;;;;3.13;3.03;;;;;;;;;;4931303;29;20420;-66
2022/06/21 10:11:03;;;;;;;2.80;2.70;;;;;;;;;;4932321;29;20431;-65
2022/06/21 10:13:42;;;;;;;6.63;3.10;;;;;;;;;;4932582;29;20432;-66
2022/06/21 10:16:23;;;;;;;6.53;2.57;;;;;;;;;;4931772;29;20952;-67
2022/06/21 10:18:49;;;;;;;4.90;3.30;;;;;;;;;;4932290;29;20507;-66
2022/06/21 10:21:27;;;;;;;3.00;2.83;;;;;;;;;;4932298;29;20515;-65
2022/06/21 10:24:02;;;;;;;4.03;3.67;;;;;;;;;;4931990;29;20688;-66
2022/06/21 10:26:42;;;;;;;2.97;2.83;;;;;;;;;;4930150;29;20442;-66
2022/06/21 10:29:23;;;;;;;12.83;4.43;;;;;;;;;;4932161;29;20435;-66
2022/06/21 10:31:58;;;;;;;4.77;3.07;;;;;;;;;;4932277;29;20582;-66
2022/06/21 10:34:36;;;;;;;3.63;3.53;;;;;;;;;;4932293;29;20466;-66
2022/06/21 10:37:11;;;;;;;4.20;3.80;;;;;;;;;;4930908;29;21010;-66
2022/06/21 10:40:00;;;;;;;8.50;6.70;;;;;;;;;;4932118;29;20451;-66
2022/06/21 10:42:53;;;;;;;6.83;3.83;;;;;;;;;;4931277;29;20944;-66
2022/06/21 10:45:29;;;;;;;5.00;4.63;;;;;;;;;;4929590;29;20471;-66
2022/06/21 10:47:58;;;;;;;4.33;3.93;;;;;;;;;;4930167;29;20450;-66
2022/06/21 10:50:30;;;;;;;4.97;4.40;;;;;;;;;;4931560;29;20467;-66
2022/06/21 10:52:56;;;;;;;4.57;4.33;;;;;;;;;;4931211;29;20464;-66
2022/06/21 10:55:31;;;;;;;3.30;3.10;;;;;;;;;;4931427;29;20482;-66
2022/06/21 10:58:15;;;;;;;4.20;3.90;;;;;;;;;;4930610;29;20222;-65
2022/06/21 11:01:19;;;;;;;2.67;2.47;;;;;;;;;;4931564;29;20524;-66
2022/06/21 11:04:21;;;;;;;3.40;3.20;;;;;;;;;;4931969;29;20502;-66
2022/06/21 11:07:06;;;;;;;3.63;3.43;;;;;;;;;;4871905;29;20464;-66
2022/06/21 11:09:36;;;;;;;4.43;4.03;;;;;;;;;;4926543;29;20526;-66
2022/06/21 11:15:27;;;;;;;2.80;2.70;;;;;;;;;;4933084;29;20495;-66
2022/06/21 11:17:53;;;;;;;3.10;2.90;;;;;;;;;;4934141;29;20443;-65
2022/06/21 11:20:38;;;;;;;2.70;2.57;;;;;;;;;;4935033;29;20434;-66
2022/06/21 11:23:26;;;;;;;18.23;7.20;;;;;;;;;;4934656;29;20218;-65
2022/06/21 11:25:58;;;;;;;9.93;2.97;;;;;;;;;;4935194;29;20432;-66
2022/06/21 11:28:31;;;;;;;6.23;3.00;;;;;;;;;;4932531;29;20432;-66
2022/06/21 11:31:13;;;;;;;3.50;3.20;;;;;;;;;;4934356;29;20488;-66
2022/06/21 11:33:51;;;;;;;4.43;2.70;;;;;;;;;;4933793;29;20948;-66
2022/06/21 11:36:25;;;;;;;3.77;3.57;;;;;;;;;;4932986;29;20497;-65
2022/06/21 11:39:10;;;;;;;6.20;3.30;;;;;;;;;;4931880;29;21607;-66
2022/06/21 11:44:39;;;;;;;3.20;2.90;;;;;;;;;;4934279;29;20910;-66
2022/06/21 11:47:14;;;;;;;3.70;2.30;;;;;;;;;;4934048;29;20969;-65
2022/06/21 11:50:03;;;;;;;3.03;2.73;;;;;;;;;;4934617;29;20431;-65
2022/06/21 11:52:41;;;;;;;3.67;3.07;;;;;;;;;;4926689;29;20932;-65
2022/06/21 11:55:20;;;;;;;6.07;2.70;;;;;;;;;;4934005;29;20443;-65
2022/06/21 11:57:58;;;;;;;3.30;3.20;;;;;;;;;;4932922;29;20494;-66
2022/06/21 12:00:27;;;;;;;3.40;3.10;;;;;;;;;;4933774;29;20447;-66
2022/06/21 12:02:58;;;;;;;5.30;2.93;;;;;;;;;;4934540;29;20420;-66
2022/06/21 12:05:42;;;;;;;3.90;3.10;;;;;;;;;;4934170;29;20448;-65
2022/06/21 12:08:20;;;;;;;3.67;3.47;;;;;;;;;;4933502;29;20502;-65
2022/06/21 12:10:49;;;;;;;11.10;3.30;;;;;;;;;;4934453;29;20967;-66
2022/06/21 12:13:29;;;;;;;2.97;2.73;;;;;;;;;;4933430;29;20428;-66
2022/06/21 12:15:55;;;;;;;4.37;3.17;;;;;;;;;;4932823;29;20501;-65
2022/06/21 12:18:22;;;;;;;3.40;3.30;;;;;;;;;;4931692;29;20954;-65
2022/06/21 12:20:48;;;;;;;2.50;2.43;;;;;;;;;;4932332;29;20436;-65
2022/06/21 12:23:33;;;;;;;13.43;3.23;;;;;;;;;;4931534;29;20846;-66
2022/06/21 12:25:59;;;;;;;6.90;2.97;;;;;;;;;;4933708;29;20204;-66
2022/06/21 12:28:26;;;;;;;9.30;2.97;;;;;;;;;;4932454;29;20443;-65
2022/06/21 12:30:52;;;;;;;4.40;2.47;;;;;;;;;;4931680;29;20478;-66
2022/06/21 12:33:20;;;;;;;3.03;2.87;;;;;;;;;;4933913;29;20818;-66
2022/06/21 12:35:52;;;;;;;3.40;3.07;;;;;;;;;;4932403;29;20487;-66
2022/06/21 12:38:23;;;;;;;4.93;3.03;;;;;;;;;;4933221;29;20447;-65
2022/06/21 12:40:54;;;;;;;5.30;3.50;;;;;;;;;;4932746;29;20444;-67
2022/06/21 12:43:23;;;;;;;3.47;3.23;;;;;;;;;;4933425;29;20507;-66
2022/06/21 12:45:55;;;;;;;4.47;3.50;;;;;;;;;;4932996;29;20451;-66
2022/06/21 12:48:31;;;;;;;3.23;3.03;;;;;;;;;;4932752;29;20440;-68
2022/06/21 12:51:00;;;;;;;3.33;3.13;;;;;;;;;;4932085;29;20447;-66
2022/06/21 12:53:26;;;;;;;5.30;4.83;;;;;;;;;;4932665;29;20566;-67
2022/06/21 12:56:10;;;;;;;3.70;3.40;;;;;;;;;;4932612;29;20887;-68
2022/06/21 12:58:57;;;;;;;3.10;3.00;;;;;;;;;;4932523;29;20268;-66
2022/06/21 13:01:28;;;;;;;3.67;3.47;;;;;;;;;;4932534;29;20485;-69
2022/06/21 13:04:10;;;;;;;4.40;3.67;;;;;;;;;;4932274;29;20873;-67
2022/06/21 13:06:46;;;;;;;3.47;3.27;;;;;;;;;;4932879;29;21018;-66
2022/06/21 13:09:41;;;;;;;3.80;3.57;;;;;;;;;;4932523;29;20990;-66
2022/06/21 13:12:10;;;;;;;3.40;3.30;;;;;;;;;;4880599;29;20434;-66
2022/06/21 13:14:44;;;;;;;5.20;3.90;;;;;;;;;;4933207;29;20971;-66
2022/06/21 13:17:18;;;;;;;4.43;4.10;;;;;;;;;;4931669;29;20566;-66
2022/06/21 13:19:44;;;;;;;5.67;3.97;;;;;;;;;;4932703;29;20951;-66
2022/06/21 13:22:16;;;;;;;6.00;3.60;;;;;;;;;;4932288;29;20528;-69
2022/06/21 13:24:49;;;;;;;5.77;4.00;;;;;;;;;;4932086;29;20675;-65
2022/06/21 13:27:18;;;;;;;5.80;3.67;;;;;;;;;;4931025;29;20455;-71
2022/06/21 13:29:44;;;;;;;5.10;3.30;;;;;;;;;;4932021;29;20531;-67
2022/06/21 13:32:30;;;;;;;12.63;3.50;;;;;;;;;;4931934;29;20543;-67
2022/06/21 13:35:16;;;;;;;4.83;3.60;;;;;;;;;;4932982;29;20267;-66
2022/06/21 13:38:04;;;;;;;4.20;3.87;;;;;;;;;;4930161;29;20447;-67
2022/06/21 13:40:37;;;;;;;4.57;3.37;;;;;;;;;;4931422;29;20444;-67
2022/06/21 13:43:08;;;;;;;8.10;4.20;;;;;;;;;;4932511;29;20560;-67
2022/06/21 13:45:49;;;;;;;5.43;3.43;;;;;;;;;;4924344;29;21031;-65
2022/06/21 13:48:34;;;;;;;3.77;3.40;;;;;;;;;;4931633;29;20443;-67
2022/06/21 13:51:15;;;;;;;6.63;4.07;;;;;;;;;;4927347;29;20443;-65
2022/06/21 13:53:44;;;;;;;5.90;3.80;;;;;;;;;;4931990;29;20427;-66
2022/06/21 13:56:10;;;;;;;4.10;3.67;;;;;;;;;;4932095;29;20990;-68
2022/06/21 13:58:37;;;;;;;6.30;4.27;;;;;;;;;;4931576;29;20448;-66
2022/06/21 14:01:07;;;;;;;3.97;3.70;;;;;;;;;;4931996;29;20187;-67
2022/06/21 14:03:55;;;;;;;3.80;3.40;;;;;;;;;;4931660;29;20539;-66
2022/06/21 14:06:27;;;;;;;4.20;3.80;;;;;;;;;;4930848;29;20452;-66
2022/06/21 14:09:04;;;;;;;6.57;3.93;;;;;;;;;;4931705;29;20467;-66
2022/06/21 14:11:35;;;;;;;6.90;3.07;;;;;;;;;;4931271;29;20451;-66
2022/06/21 14:14:06;;;;;;;3.87;3.67;;;;;;;;;;4930660;29;20939;-66
2022/06/21 14:16:37;;;;;;;4.33;4.00;;;;;;;;;;4929927;29;20447;-66
2022/06/21 14:19:08;;;;;;;5.80;3.37;;;;;;;;;;4931237;29;20920;-66
2022/06/21 14:21:44;;;;;;;3.60;3.50;;;;;;;;;;4929927;29;20955;-66
2022/06/21 14:24:29;;;;;;;3.30;3.20;;;;;;;;;;4930451;29;20480;-66
2022/06/21 14:26:57;;;;;;;3.20;3.10;;;;;;;;;;4931237;29;20807;-68
2022/06/21 14:29:39;;;;;;;3.47;3.37;;;;;;;;;;4930734;29;20799;-66
2022/06/21 14:32:10;;;;;;;3.70;3.60;;;;;;;;;;4930635;29;20435;-65
2022/06/21 14:34:42;;;;;;;5.80;3.20;;;;;;;;;;4931814;29;20439;-66
2022/06/21 14:37:14;;;;;;;9.03;3.90;;;;;;;;;;4928811;29;20440;-66
2022/06/21 14:40:00;;;;;;;3.83;3.43;;;;;;;;;;4931467;29;20440;-65
2022/06/21 14:42:29;;;;;;;6.87;4.70;;;;;;;;;;4915978;29;20515;-66
2022/06/21 14:44:57;;;;;;;5.93;3.90;;;;;;;;;;4931384;29;20534;-67
2022/06/21 14:47:34;;;;;;;4.17;3.97;;;;;;;;;;4931461;29;20428;-67
2022/06/21 14:50:12;;;;;;;3.60;3.27;;;;;;;;;;4933287;29;20430;-65
2022/06/21 14:52:57;;;;;;;9.03;3.57;;;;;;;;;;4934483;29;20443;-66
2022/06/21 14:55:26;;;;;;;3.87;3.37;;;;;;;;;;4934805;29;20498;-67
2022/06/21 14:57:55;;;;;;;5.07;3.03;;;;;;;;;;4933548;29;20432;-66
2022/06/21 15:00:33;;;;;;;3.63;3.33;;;;;;;;;;4935009;29;20463;-65
2022/06/21 15:03:20;;;;;;;5.53;3.53;;;;;;;;;;4933936;29;20530;-65
2022/06/21 15:05:45;;;;;;;4.53;2.93;;;;;;;;;;4924899;29;20444;-66
2022/06/21 15:08:14;;;;;;;4.40;4.20;;;;;;;;;;4934499;29;20439;-65
2022/06/21 15:10:44;;;;;;;4.63;4.20;;;;;;;;;;4934108;29;20478;-65
2022/06/21 15:13:19;;;;;;;5.37;2.80;;;;;;;;;;4934884;29;21649;-65
2022/06/21 15:15:47;;;;;;;3.70;3.50;;;;;;;;;;4932394;29;20462;-66
2022/06/21 15:18:17;;;;;;;3.50;3.20;;;;;;;;;;4932717;29;20779;-66
2022/06/21 15:20:43;;;;;;;6.10;3.90;;;;;;;;;;4934290;29;20435;-67
2022/06/21 15:23:09;;;;;;;10.17;3.67;;;;;;;;;;4933702;29;21030;-65
2022/06/21 15:25:47;;;;;;;4.07;3.47;;;;;;;;;;4934131;29;20447;-66
2022/06/21 15:28:16;;;;;;;3.67;3.47;;;;;;;;;;4934347;29;20188;-65
2022/06/21 15:30:45;;;;;;;5.50;3.63;;;;;;;;;;4933883;29;20451;-66
2022/06/21 15:33:19;;;;;;;4.90;3.33;;;;;;;;;;4932420;29;20975;-66
2022/06/21 15:35:54;;;;;;;3.30;3.00;;;;;;;;;;4933933;29;20432;-66
2022/06/21 15:38:21;;;;;;;8.00;3.10;;;;;;;;;;4932163;29;20447;-64
2022/06/21 15:40:53;;;;;;;9.30;3.67;;;;;;;;;;4932345;29;20431;-66
2022/06/21 15:43:37;;;;;;;6.53;3.77;;;;;;;;;;4933053;29;20475;-68
2022/06/21 15:46:08;;;;;;;4.20;3.10;;;;;;;;;;4933341;29;20467;-66
2022/06/21 15:51:48;;;;;;;10.27;3.23;;;;;;;;;;4934077;29;20483;-66
2022/06/21 15:54:32;;;;;;;14.43;3.00;;;;;;;;;;4934096;29;20954;-66
2022/06/21 15:57:18;;;;;;;4.93;3.23;;;;;;;;;;4932246;29;20435;-66